Time;durP1;ratioP1;P1;durP2;ratioP2;P2;SDS_P1;SDS_P2;PMS_P1;PMS_P2;Temp;Humidity;BMP_temperature;BMP_pressure;BME280_temperature;BME280_humidity;BME280_pressure;Samples;Min_cycle;Max_cycle;Signal;HPM_P1;HPM_P2
2023/12/27 00:00:47;;;;;;;10.80;4.30;;;4.50;99.90;;;;;;4959199;28;20074;-73
2023/12/27 00:03:12;;;;;;;11.35;3.60;;;4.50;99.90;;;;;;4949929;28;20038;-72
2023/12/27 00:05:38;;;;;;;12.50;3.50;;;4.50;99.90;;;;;;4955833;28;20038;-72
2023/12/27 00:08:03;;;;;;;13.07;3.95;;;4.50;99.90;;;;;;4953589;28;20034;-72
2023/12/27 00:10:29;;;;;;;11.93;3.95;;;4.50;99.90;;;;;;4953333;28;20381;-73
2023/12/27 00:12:54;;;;;;;13.63;4.40;;;4.50;99.90;;;;;;4956477;28;20502;-73
2023/12/27 00:15:20;;;;;;;14.93;4.57;;;4.50;99.90;;;;;;4961628;28;20533;-72
2023/12/27 00:17:46;;;;;;;9.90;3.53;;;4.60;99.90;;;;;;4954148;28;20411;-72
2023/12/27 00:20:12;;;;;;;10.93;3.92;;;4.50;99.90;;;;;;4956088;28;20067;-73
2023/12/27 00:22:37;;;;;;;8.88;3.78;;;4.50;99.90;;;;;;4963627;28;20108;-72
2023/12/27 00:25:03;;;;;;;13.50;4.53;;;4.50;99.90;;;;;;4958147;28;20083;-72
2023/12/27 00:27:29;;;;;;;15.35;5.25;;;4.50;99.90;;;;;;4960979;28;20028;-73
2023/12/27 00:29:55;;;;;;;12.48;4.30;;;4.40;99.90;;;;;;4959836;28;20027;-72
2023/12/27 00:32:20;;;;;;;19.20;5.50;;;4.50;99.90;;;;;;4953308;28;20043;-73
2023/12/27 00:34:48;;;;;;;10.70;4.47;;;4.50;99.90;;;;;;4954476;28;20043;-73
2023/12/27 00:37:14;;;;;;;15.88;4.20;;;4.50;99.90;;;;;;4952332;28;20038;-73
2023/12/27 00:39:39;;;;;;;21.05;3.97;;;4.50;99.90;;;;;;4959786;28;20035;-72
2023/12/27 00:42:05;;;;;;;9.88;3.88;;;4.50;99.90;;;;;;4959301;28;20035;-72
2023/12/27 00:44:31;;;;;;;8.55;3.70;;;4.50;99.90;;;;;;4956478;28;20082;-72
2023/12/27 00:46:56;;;;;;;12.13;5.13;;;4.40;99.90;;;;;;4957143;28;20509;-72
2023/12/27 00:49:22;;;;;;;12.43;5.40;;;4.30;99.90;;;;;;4954704;28;20042;-72
2023/12/27 00:51:48;;;;;;;15.70;4.07;;;4.30;99.90;;;;;;4958976;28;20126;-72
2023/12/27 00:54:13;;;;;;;25.45;6.18;;;4.30;99.90;;;;;;4958684;28;20039;-72
2023/12/27 00:56:39;;;;;;;14.70;5.03;;;4.40;99.90;;;;;;4954223;28;20109;-74
2023/12/27 00:59:06;;;;;;;13.65;4.90;;;4.30;99.90;;;;;;4955901;28;20089;-72
2023/12/27 01:01:31;;;;;;;14.85;5.05;;;4.40;99.90;;;;;;4954999;28;20503;-72
2023/12/27 01:03:57;;;;;;;14.57;4.05;;;4.40;99.90;;;;;;4965974;28;20138;-72
2023/12/27 01:06:23;;;;;;;14.40;5.38;;;4.30;99.90;;;;;;4964909;28;20038;-73
2023/12/27 01:08:48;;;;;;;14.77;4.43;;;4.30;99.90;;;;;;4949112;28;20054;-72
2023/12/27 01:11:14;;;;;;;15.85;4.93;;;4.30;99.90;;;;;;4959068;28;20046;-73
2023/12/27 01:13:40;;;;;;;11.13;5.10;;;4.40;99.90;;;;;;4959478;28;20102;-72
2023/12/27 01:16:06;;;;;;;19.55;5.93;;;4.40;99.90;;;;;;4964565;28;20031;-72
2023/12/27 01:18:31;;;;;;;8.35;4.10;;;4.50;99.90;;;;;;4956741;28;20035;-72
2023/12/27 01:20:57;;;;;;;7.90;4.10;;;4.50;99.90;;;;;;4953319;28;20403;-72
2023/12/27 01:23:22;;;;;;;17.83;5.47;;;4.50;99.90;;;;;;4961522;28;20043;-72
2023/12/27 01:25:48;;;;;;;14.43;4.32;;;4.50;99.90;;;;;;4959272;28;20038;-72
2023/12/27 01:28:14;;;;;;;15.95;5.88;;;4.50;99.90;;;;;;4961013;28;20134;-72
2023/12/27 01:30:40;;;;;;;15.00;4.85;;;4.50;99.90;;;;;;4965772;28;20030;-74
2023/12/27 01:33:05;;;;;;;16.42;4.72;;;4.50;99.90;;;;;;4954650;28;20054;-72
2023/12/27 01:35:31;;;;;;;12.35;4.85;;;4.50;99.90;;;;;;4955944;28;20035;-72
2023/12/27 01:37:57;;;;;;;14.38;4.88;;;4.50;99.90;;;;;;4959226;28;20050;-75
2023/12/27 01:40:22;;;;;;;13.43;4.18;;;4.50;99.90;;;;;;4959316;28;20034;-72
2023/12/27 01:42:48;;;;;;;15.98;4.07;;;4.50;99.90;;;;;;4954945;28;20566;-72
2023/12/27 01:45:13;;;;;;;12.70;4.30;;;4.40;99.90;;;;;;4957893;28;20043;-75
2023/12/27 01:47:39;;;;;;;9.13;4.13;;;4.40;99.90;;;;;;4952764;28;20026;-72
2023/12/27 01:50:09;;;;;;;16.45;5.90;;;4.40;99.90;;;;;;4954940;28;20031;-74
2023/12/27 01:52:41;;;;;;;12.20;4.65;;;4.40;99.90;;;;;;4962472;28;20498;-74
2023/12/27 01:55:09;;;;;;;9.75;4.43;;;4.40;99.90;;;;;;4958113;28;20049;-74
2023/12/27 01:57:38;;;;;;;17.35;5.32;;;4.40;99.90;;;;;;4961528;28;20031;-74
2023/12/27 02:00:05;;;;;;;13.13;4.43;;;4.40;99.90;;;;;;4955381;28;20050;-74
2023/12/27 02:02:30;;;;;;;16.48;4.75;;;4.30;99.90;;;;;;4962431;28;20035;-74
2023/12/27 02:04:56;;;;;;;15.45;4.65;;;4.30;99.90;;;;;;4954702;28;20031;-74
2023/12/27 02:07:22;;;;;;;19.10;5.30;;;4.30;99.90;;;;;;4955022;28;20138;-72
2023/12/27 02:09:49;;;;;;;15.30;5.38;;;4.30;99.90;;;;;;4952987;28;20046;-73
2023/12/27 02:12:44;;;;;;;21.08;6.70;;;4.40;99.90;;;;;;4954322;28;20038;-73
2023/12/27 02:15:10;;;;;;;27.83;5.57;;;4.50;99.90;;;;;;4921423;28;20042;-74
2023/12/27 02:17:36;;;;;;;12.00;4.85;;;4.60;99.90;;;;;;4956508;28;20040;-72
2023/12/27 02:20:02;;;;;;;16.67;5.80;;;4.60;99.90;;;;;;4962926;28;20045;-72
2023/12/27 02:22:30;;;;;;;12.15;4.57;;;4.50;99.90;;;;;;4954377;28;20085;-73
2023/12/27 02:24:56;;;;;;;22.17;5.15;;;4.50;99.90;;;;;;4957920;28;20113;-72
2023/12/27 02:27:22;;;;;;;18.55;5.18;;;4.50;99.90;;;;;;4958645;28;20071;-73
2023/12/27 02:29:48;;;;;;;18.02;5.65;;;4.60;99.90;;;;;;4936161;28;20302;-73
2023/12/27 13:06:32;;;;;;;8.65;2.22;;;9.40;99.90;;;;;;5201587;23;20131;-75
2023/12/27 13:08:57;;;;;;;5.53;2.33;;;9.40;99.90;;;;;;4955293;28;20118;-73
2023/12/27 13:11:23;;;;;;;4.03;2.00;;;9.40;99.90;;;;;;4961394;28;20110;-74
2023/12/27 13:13:49;;;;;;;5.18;2.42;;;9.40;99.90;;;;;;4956357;28;20039;-73
2023/12/27 13:16:16;;;;;;;7.75;2.17;;;9.40;99.90;;;;;;4939220;28;20031;-74
2023/12/27 13:18:41;;;;;;;10.27;1.83;;;9.40;99.90;;;;;;4942477;28;20078;-75
2023/12/27 13:21:08;;;;;;;4.53;1.90;;;9.40;99.90;;;;;;4936618;28;20435;-74
2023/12/27 13:23:34;;;;;;;5.75;2.58;;;9.50;99.90;;;;;;4940395;28;20729;-74
2023/12/27 13:26:00;;;;;;;5.20;2.45;;;9.40;99.90;;;;;;4945534;28;20034;-74
2023/12/27 13:28:25;;;;;;;8.00;3.10;;;9.50;99.90;;;;;;4941910;28;20034;-72
2023/12/27 13:30:55;;;;;;;8.38;3.10;;;9.40;99.90;;;;;;4939256;28;20051;-73
2023/12/27 13:33:21;;;;;;;4.65;1.80;;;9.40;99.90;;;;;;4939456;28;20039;-73
2023/12/27 13:35:48;;;;;;;5.00;1.80;;;9.40;99.90;;;;;;4958390;28;20399;-73
2023/12/27 13:38:14;;;;;;;4.15;2.17;;;9.40;99.90;;;;;;4943374;28;20108;-74
2023/12/27 13:40:43;;;;;;;13.27;2.85;;;9.30;99.90;;;;;;4940833;28;20035;-76
2023/12/27 13:43:09;;;;;;;5.10;1.90;;;9.30;99.90;;;;;;4937189;28;20046;-73
2023/12/27 13:45:35;;;;;;;6.00;2.00;;;9.30;99.90;;;;;;4936800;28;20775;-71
2023/12/27 13:48:01;;;;;;;7.28;1.88;;;9.30;99.90;;;;;;4937247;28;20038;-75
2023/12/27 13:50:27;;;;;;;5.07;2.03;;;9.30;99.90;;;;;;4937117;28;20078;-76
2023/12/27 13:52:53;;;;;;;2.78;1.50;;;9.30;99.90;;;;;;4933685;28;20035;-75
2023/12/27 13:55:21;;;;;;;6.13;1.98;;;9.20;99.90;;;;;;4956633;28;20039;-74
2023/12/27 13:57:50;;;;;;;7.07;2.80;;;9.20;99.90;;;;;;4932987;28;20089;-74
2023/12/27 14:00:20;;;;;;;8.55;2.92;;;9.20;99.90;;;;;;4937222;28;20641;-72
2023/12/27 14:02:49;;;;;;;8.60;1.87;;;9.20;99.90;;;;;;4935894;28;20035;-73
2023/12/27 14:05:18;;;;;;;7.72;1.63;;;9.20;99.90;;;;;;4941690;28;20114;-72
2023/12/27 14:07:45;;;;;;;5.47;2.58;;;9.20;99.90;;;;;;4938516;28;20043;-73
2023/12/27 14:10:13;;;;;;;9.65;2.55;;;9.20;99.90;;;;;;4940179;28;20045;-73
2023/12/27 14:12:42;;;;;;;7.30;2.40;;;9.20;99.90;;;;;;4942079;28;20549;-73
2023/12/27 14:15:14;;;;;;;9.30;2.95;;;9.20;99.90;;;;;;4937070;28;20054;-73
2023/12/27 14:17:41;;;;;;;10.88;3.28;;;9.20;99.90;;;;;;4940800;28;20518;-73
2023/12/27 14:20:10;;;;;;;8.07;2.78;;;9.20;99.90;;;;;;4928179;28;20050;-71
2023/12/27 14:22:37;;;;;;;7.45;2.80;;;9.20;99.90;;;;;;4928317;28;20849;-70
2023/12/27 14:25:04;;;;;;;8.23;2.22;;;9.20;99.90;;;;;;4946023;28;20031;-73
2023/12/27 14:27:30;;;;;;;9.95;5.15;;;9.20;99.90;;;;;;4937958;28;20035;-74
2023/12/27 14:29:56;;;;;;;6.22;2.95;;;9.10;99.90;;;;;;4941578;28;20093;-72
2023/12/27 14:32:22;;;;;;;10.30;3.00;;;9.10;99.90;;;;;;4951300;28;20747;-74
2023/12/27 14:34:47;;;;;;;9.90;3.58;;;9.10;99.90;;;;;;4937938;29;20092;-73
2023/12/27 14:37:13;;;;;;;8.50;3.42;;;9.00;99.90;;;;;;4928265;29;20031;-73
2023/12/27 14:39:38;;;;;;;8.45;2.55;;;9.10;99.90;;;;;;4930779;28;20023;-73
2023/12/27 14:42:05;;;;;;;20.27;4.72;;;9.10;99.90;;;;;;4956103;28;20031;-73
2023/12/27 14:44:33;;;;;;;6.95;2.13;;;9.00;99.90;;;;;;4957116;28;20046;-74
2023/12/27 14:46:59;;;;;;;6.95;2.30;;;9.10;99.90;;;;;;4939113;28;20505;-73
2023/12/27 14:49:24;;;;;;;11.13;2.75;;;9.10;99.90;;;;;;4942296;28;20126;-74
2023/12/27 14:51:50;;;;;;;8.43;2.55;;;9.10;99.90;;;;;;4940866;28;20042;-74
2023/12/27 14:54:16;;;;;;;4.57;1.90;;;9.10;99.90;;;;;;4937409;29;20487;-73
2023/12/27 14:56:41;;;;;;;5.93;1.92;;;9.00;99.90;;;;;;4947971;28;20032;-74
2023/12/27 14:59:07;;;;;;;5.22;1.83;;;9.00;99.90;;;;;;4927494;29;20058;-74
2023/12/27 15:01:32;;;;;;;8.07;2.38;;;9.00;99.90;;;;;;4946843;28;20043;-74
2023/12/27 15:03:58;;;;;;;4.72;1.73;;;9.00;99.90;;;;;;4955914;28;20054;-73
2023/12/27 15:06:24;;;;;;;6.68;2.65;;;9.00;99.90;;;;;;4938324;28;20567;-73
2023/12/27 15:08:50;;;;;;;6.85;1.70;;;8.90;99.90;;;;;;4929587;29;20171;-72
2023/12/27 15:11:17;;;;;;;12.85;2.47;;;9.00;99.90;;;;;;4930544;28;20031;-72
2023/12/27 15:13:42;;;;;;;6.82;2.42;;;8.90;99.90;;;;;;4947636;28;20487;-73
2023/12/27 15:16:16;;;;;;;8.35;2.00;;;8.90;99.90;;;;;;4930525;29;20026;-73
2023/12/27 15:18:43;;;;;;;5.72;1.80;;;9.00;99.90;;;;;;4930455;28;20054;-73
2023/12/27 15:21:18;;;;;;;9.30;3.72;;;9.00;99.90;;;;;;4930190;28;20057;-73
2023/12/27 15:23:43;;;;;;;6.35;2.30;;;9.00;99.90;;;;;;4911634;29;20047;-73
2023/12/27 15:26:22;;;;;;;8.27;2.15;;;9.00;99.90;;;;;;4959530;28;20043;-73
2023/12/27 15:28:50;;;;;;;6.88;2.60;;;9.00;99.90;;;;;;4949200;28;20070;-73
2023/12/27 15:31:20;;;;;;;8.43;3.22;;;9.00;99.90;;;;;;4944602;29;20043;-73
2023/12/27 15:33:46;;;;;;;9.00;1.90;;;9.00;99.90;;;;;;4930696;28;20059;-74
2023/12/27 15:36:14;;;;;;;4.13;1.75;;;9.00;99.90;;;;;;4930556;28;20054;-73
2023/12/27 15:38:39;;;;;;;6.53;1.63;;;8.90;99.90;;;;;;4930705;28;20383;-73
2023/12/27 15:41:05;;;;;;;7.82;1.77;;;9.00;99.90;;;;;;4934636;28;20035;-74
2023/12/27 15:43:31;;;;;;;13.45;2.75;;;8.90;99.90;;;;;;4945086;28;20087;-73
2023/12/27 15:45:57;;;;;;;4.97;2.22;;;8.90;99.90;;;;;;4939363;28;20039;-72
2023/12/27 15:48:22;;;;;;;6.45;1.75;;;8.90;99.90;;;;;;4934854;28;20067;-75
2023/12/27 15:50:48;;;;;;;6.35;1.98;;;8.90;99.90;;;;;;4951477;28;20503;-75
2023/12/27 15:53:13;;;;;;;6.85;1.50;;;8.90;99.90;;;;;;4934089;28;20039;-74
2023/12/27 15:55:39;;;;;;;10.65;1.77;;;8.90;99.90;;;;;;4951715;29;20062;-73
2023/12/27 15:58:05;;;;;;;5.70;2.00;;;8.80;99.90;;;;;;4933709;29;20062;-74
2023/12/27 16:00:30;;;;;;;5.45;2.55;;;8.80;99.90;;;;;;4936830;28;20035;-73
2023/12/27 16:02:56;;;;;;;4.15;1.55;;;8.80;99.90;;;;;;4934560;28;20534;-72
2023/12/27 16:05:21;;;;;;;10.82;1.85;;;8.90;99.90;;;;;;4952191;28;20113;-72
2023/12/27 16:07:47;;;;;;;8.10;1.70;;;8.80;99.90;;;;;;4933907;28;20043;-73
2023/12/27 16:10:13;;;;;;;3.95;1.00;;;8.90;99.90;;;;;;4933749;29;20090;-75
2023/12/27 16:12:38;;;;;;;4.32;1.58;;;8.80;99.90;;;;;;4933575;28;20063;-73
2023/12/27 16:15:05;;;;;;;7.35;1.75;;;8.80;99.90;;;;;;4949147;28;20403;-74
2023/12/27 16:17:31;;;;;;;1.98;1.23;;;8.80;99.90;;;;;;4971591;28;20046;-74
2023/12/27 16:19:56;;;;;;;3.97;1.48;;;8.80;99.90;;;;;;4952959;28;20050;-73
2023/12/27 16:22:22;;;;;;;5.18;1.85;;;8.80;99.90;;;;;;4971632;28;20117;-73
2023/12/27 16:24:48;;;;;;;2.78;1.15;;;8.70;99.90;;;;;;4938192;28;20038;-73
2023/12/27 16:27:13;;;;;;;4.07;0.98;;;8.70;99.90;;;;;;4942336;29;20166;-74
2023/12/27 16:29:43;;;;;;;2.40;1.17;;;8.70;99.90;;;;;;4939581;28;20478;-73
2023/12/27 16:32:10;;;;;;;4.57;2.15;;;8.70;99.90;;;;;;4938403;28;20027;-75
2023/12/27 16:34:36;;;;;;;5.80;1.83;;;8.70;99.90;;;;;;4953821;28;20047;-73
2023/12/27 16:37:02;;;;;;;4.72;1.23;;;8.70;99.90;;;;;;4942142;28;20071;-73
2023/12/27 16:39:27;;;;;;;4.32;1.48;;;8.60;99.90;;;;;;4961878;28;20491;-74
2023/12/27 16:41:53;;;;;;;6.80;1.13;;;8.60;99.90;;;;;;4933407;29;20038;-76
2023/12/27 16:44:23;;;;;;;6.95;1.27;;;8.70;99.90;;;;;;4934276;29;20399;-72
2023/12/27 16:46:49;;;;;;;3.20;1.13;;;8.60;99.90;;;;;;4951964;29;20035;-75
2023/12/27 16:49:14;;;;;;;5.30;1.17;;;8.60;99.90;;;;;;4934124;29;20036;-74
2023/12/27 16:51:40;;;;;;;5.07;1.60;;;8.60;99.90;;;;;;4963563;28;20030;-75
2023/12/27 16:54:06;;;;;;;5.57;1.58;;;8.60;99.90;;;;;;4971080;28;20050;-73
2023/12/27 16:56:33;;;;;;;6.57;1.15;;;8.50;99.90;;;;;;4954730;28;20059;-75
2023/12/27 16:58:58;;;;;;;4.60;1.25;;;8.60;99.90;;;;;;4932497;28;20031;-74
2023/12/27 17:01:24;;;;;;;2.75;1.15;;;8.50;99.90;;;;;;4934420;28;20035;-73
2023/12/27 17:03:51;;;;;;;4.53;1.10;;;8.50;99.90;;;;;;4951178;28;20024;-74
2023/12/27 17:06:17;;;;;;;7.70;1.30;;;8.50;99.90;;;;;;4943435;28;20039;-74
2023/12/27 17:08:43;;;;;;;5.13;1.30;;;8.50;99.90;;;;;;4970423;28;20047;-74
2023/12/27 17:11:09;;;;;;;7.97;0.95;;;8.50;99.90;;;;;;4952991;28;20118;-74
2023/12/27 17:13:34;;;;;;;6.68;1.15;;;8.40;99.90;;;;;;4952809;28;20418;-74
2023/12/27 17:16:00;;;;;;;5.75;1.00;;;8.40;99.90;;;;;;4934335;28;20043;-73
2023/12/27 17:18:25;;;;;;;4.57;1.50;;;8.30;99.90;;;;;;4934884;29;20147;-74
2023/12/27 17:20:51;;;;;;;2.30;1.05;;;8.40;99.90;;;;;;4935058;28;20513;-73
2023/12/27 17:23:17;;;;;;;5.13;1.20;;;8.30;99.90;;;;;;4939935;29;20035;-73
2023/12/27 17:25:42;;;;;;;4.05;1.30;;;8.30;99.90;;;;;;4951346;28;20090;-74
2023/12/27 17:28:08;;;;;;;7.72;1.00;;;8.30;99.90;;;;;;4925372;29;20063;-74
2023/12/27 17:30:36;;;;;;;3.15;1.20;;;8.30;99.90;;;;;;4933723;28;20041;-75
2023/12/27 17:33:03;;;;;;;2.67;1.30;;;8.30;99.90;;;;;;4933405;29;20035;-74
2023/12/27 17:35:28;;;;;;;4.38;1.02;;;8.30;99.90;;;;;;4951365;28;20067;-74
2023/12/27 17:37:54;;;;;;;5.07;1.40;;;8.30;99.90;;;;;;4933298;29;20062;-74
2023/12/27 17:40:19;;;;;;;5.32;1.10;;;8.30;99.90;;;;;;4933464;28;20035;-75
2023/12/27 17:42:45;;;;;;;5.35;1.10;;;8.30;99.90;;;;;;4933381;28;20040;-74
2023/12/27 17:45:11;;;;;;;4.60;1.23;;;8.40;99.90;;;;;;4950267;28;20035;-73
2023/12/27 17:47:37;;;;;;;4.80;1.10;;;8.40;99.90;;;;;;4930982;28;20126;-74
2023/12/27 17:50:03;;;;;;;4.82;1.10;;;8.40;99.90;;;;;;4955802;28;20118;-74
2023/12/27 17:52:30;;;;;;;7.28;1.02;;;8.30;99.90;;;;;;4931651;29;20051;-74
2023/12/27 17:54:56;;;;;;;2.45;0.90;;;8.30;99.90;;;;;;4931008;28;20031;-74
2023/12/27 17:57:22;;;;;;;3.90;1.42;;;8.30;99.90;;;;;;4938876;28;20027;-74
2023/12/27 17:59:52;;;;;;;3.03;1.10;;;8.30;99.90;;;;;;4951343;28;20130;-74
2023/12/27 18:02:18;;;;;;;5.32;1.00;;;8.30;99.90;;;;;;4950563;28;20122;-73
2023/12/27 18:04:46;;;;;;;7.13;1.20;;;8.30;99.90;;;;;;4944061;28;20028;-74
2023/12/27 18:07:12;;;;;;;7.57;2.10;;;8.30;99.90;;;;;;4932174;28;20023;-74
2023/12/27 18:09:44;;;;;;;2.03;0.98;;;8.30;99.90;;;;;;4932135;28;20460;-73
2023/12/27 18:12:12;;;;;;;5.00;2.42;;;8.30;99.90;;;;;;4949190;28;20035;-73
2023/12/27 18:14:41;;;;;;;2.80;1.20;;;8.30;99.90;;;;;;4932097;28;20027;-73
2023/12/27 18:17:06;;;;;;;3.75;1.20;;;8.30;99.90;;;;;;4931621;28;20072;-73
2023/12/27 18:19:38;;;;;;;6.07;1.60;;;8.30;99.90;;;;;;4932409;29;20027;-73
2023/12/27 18:22:03;;;;;;;2.10;1.00;;;8.30;99.90;;;;;;4930997;28;20415;-73
2023/12/27 18:24:31;;;;;;;6.82;0.98;;;8.30;99.90;;;;;;4932078;29;20066;-75
2023/12/27 18:26:57;;;;;;;3.15;1.08;;;8.30;99.90;;;;;;4931060;28;20032;-73
2023/12/27 18:29:24;;;;;;;3.55;1.30;;;8.30;99.90;;;;;;4932386;29;20027;-72
2023/12/27 18:31:50;;;;;;;5.10;1.13;;;8.40;99.90;;;;;;4931013;28;20039;-75
2023/12/27 18:34:16;;;;;;;4.68;1.20;;;8.40;99.90;;;;;;4963464;28;20030;-73
2023/12/27 18:36:41;;;;;;;3.00;0.90;;;8.40;99.90;;;;;;4950558;28;20491;-74
2023/12/27 18:39:09;;;;;;;2.60;1.05;;;8.50;99.90;;;;;;4962369;28;20023;-74
2023/12/27 18:41:35;;;;;;;5.57;1.20;;;8.50;99.90;;;;;;4930716;28;20031;-73
2023/12/27 18:44:01;;;;;;;3.10;1.02;;;8.50;99.90;;;;;;4942965;28;20093;-73
2023/12/27 18:46:26;;;;;;;3.13;0.98;;;8.50;99.90;;;;;;4950319;28;20027;-73
2023/12/27 18:48:52;;;;;;;6.53;0.80;;;8.60;99.90;;;;;;4949476;28;20049;-74
2023/12/27 18:51:18;;;;;;;2.05;1.00;;;8.50;99.90;;;;;;4967991;28;20153;-74
2023/12/27 18:53:44;;;;;;;3.10;1.13;;;8.60;99.90;;;;;;4945870;28;20046;-74
2023/12/27 18:56:09;;;;;;;5.28;1.70;;;8.60;99.90;;;;;;4966602;28;20093;-73
2023/12/27 18:58:36;;;;;;;3.80;1.08;;;8.60;99.90;;;;;;4930992;28;20519;-75
2023/12/27 19:01:02;;;;;;;5.55;0.47;;;8.60;99.90;;;;;;4931429;28;20023;-73
2023/12/27 19:03:28;;;;;;;12.15;1.38;;;8.70;99.90;;;;;;4950410;28;20047;-74
2023/12/27 19:05:54;;;;;;;2.03;0.63;;;8.80;99.90;;;;;;4948336;28;20046;-73
2023/12/27 19:08:19;;;;;;;1.88;0.88;;;8.80;99.90;;;;;;4949871;28;20161;-76
2023/12/27 19:10:45;;;;;;;6.68;0.95;;;8.80;99.90;;;;;;4946168;28;20043;-74
2023/12/27 19:13:10;;;;;;;3.20;0.65;;;8.80;99.90;;;;;;4966552;28;20035;-72
2023/12/27 19:15:37;;;;;;;2.47;1.02;;;8.80;99.90;;;;;;4958078;28;20043;-74
2023/12/27 19:18:07;;;;;;;2.75;0.70;;;8.80;99.90;;;;;;4930522;28;20480;-74
2023/12/27 19:20:33;;;;;;;2.50;0.70;;;8.80;99.90;;;;;;4948800;28;20057;-73
2023/12/27 19:22:58;;;;;;;3.75;0.60;;;8.90;99.90;;;;;;4930164;28;20460;-76
2023/12/27 19:25:24;;;;;;;3.05;0.68;;;8.90;99.90;;;;;;4956075;28;20411;-73
2023/12/27 19:27:49;;;;;;;2.33;0.70;;;8.90;99.90;;;;;;4939241;28;20143;-73
2023/12/27 19:30:15;;;;;;;3.40;0.90;;;9.00;99.90;;;;;;4948004;28;20019;-75
2023/12/27 19:32:41;;;;;;;2.50;0.70;;;9.00;99.90;;;;;;4947600;28;20047;-74
2023/12/27 19:35:06;;;;;;;4.97;0.88;;;9.10;99.90;;;;;;4949505;28;20561;-74
2023/12/27 19:37:32;;;;;;;6.40;1.00;;;9.10;99.90;;;;;;4950459;28;20030;-74
2023/12/27 19:39:58;;;;;;;3.03;1.00;;;9.10;99.90;;;;;;4936887;28;20035;-72
2023/12/27 19:42:25;;;;;;;1.95;0.50;;;9.10;99.90;;;;;;4930799;29;20102;-74
2023/12/27 19:44:50;;;;;;;3.63;0.95;;;9.10;99.90;;;;;;4958308;28;20042;-75
2023/12/27 19:47:16;;;;;;;3.78;0.65;;;9.20;99.90;;;;;;4949799;28;20031;-74
2023/12/27 19:49:42;;;;;;;1.77;0.60;;;9.20;99.90;;;;;;4949108;28;20023;-74
2023/12/27 19:52:08;;;;;;;1.33;0.55;;;9.20;99.90;;;;;;4936019;28;20118;-74
2023/12/27 19:54:33;;;;;;;3.85;0.63;;;9.20;99.90;;;;;;4931176;29;20078;-73
2023/12/27 19:56:59;;;;;;;6.20;1.23;;;9.10;99.90;;;;;;4930370;28;20032;-75
2023/12/27 19:59:25;;;;;;;2.40;0.88;;;9.10;99.90;;;;;;4931189;29;20023;-74
2023/12/27 20:01:51;;;;;;;1.63;0.60;;;8.80;99.90;;;;;;4937295;28;20466;-74
2023/12/27 20:04:17;;;;;;;1.25;0.57;;;8.70;99.90;;;;;;4950428;28;20394;-74
2023/12/27 20:06:43;;;;;;;2.42;0.93;;;8.60;99.90;;;;;;4950328;28;20077;-74
2023/12/27 20:09:08;;;;;;;2.50;0.98;;;8.60;99.90;;;;;;4958866;28;20427;-75
2023/12/27 20:11:34;;;;;;;2.67;1.35;;;8.50;99.90;;;;;;4949473;28;20504;-76
2023/12/27 20:14:00;;;;;;;4.50;2.42;;;8.40;99.90;;;;;;4967324;28;20117;-73
2023/12/27 20:16:27;;;;;;;6.18;0.85;;;8.30;99.90;;;;;;4964161;28;20019;-74
2023/12/27 20:18:53;;;;;;;8.30;1.15;;;8.20;99.90;;;;;;4938032;28;20086;-74
2023/12/27 20:21:19;;;;;;;2.88;1.13;;;8.10;99.90;;;;;;4931160;29;20039;-73
2023/12/27 20:23:44;;;;;;;2.78;1.17;;;8.10;99.90;;;;;;4945145;28;20058;-73
2023/12/27 20:26:10;;;;;;;5.88;1.75;;;8.10;99.90;;;;;;4950469;28;20071;-73
2023/12/27 20:28:36;;;;;;;5.45;0.80;;;8.20;99.90;;;;;;4953092;28;20038;-74
2023/12/27 20:31:02;;;;;;;8.48;0.85;;;8.20;99.90;;;;;;4952625;28;20031;-74
2023/12/27 20:33:28;;;;;;;1.70;0.80;;;8.20;99.90;;;;;;4961981;28;20043;-73
2023/12/27 20:35:53;;;;;;;5.57;0.88;;;8.30;99.90;;;;;;4931431;28;20035;-73
2023/12/27 20:38:20;;;;;;;3.47;0.75;;;8.30;99.90;;;;;;4936274;29;20047;-73
2023/12/27 20:40:47;;;;;;;10.43;1.23;;;8.40;99.90;;;;;;4931680;29;20114;-73
2023/12/27 20:43:13;;;;;;;1.58;0.80;;;8.40;99.90;;;;;;4945960;28;20688;-73
2023/12/27 20:45:38;;;;;;;2.80;0.70;;;8.50;99.90;;;;;;4938159;28;20089;-73
2023/12/27 20:48:04;;;;;;;2.05;0.75;;;8.50;99.90;;;;;;4956403;28;20043;-72
2023/12/27 20:50:30;;;;;;;1.63;0.70;;;8.60;99.90;;;;;;4937475;29;20040;-73
2023/12/27 20:52:55;;;;;;;2.33;1.00;;;8.60;99.90;;;;;;4928023;28;20126;-74
2023/12/27 20:55:21;;;;;;;1.80;0.82;;;8.60;99.90;;;;;;4951086;28;20047;-71
2023/12/27 20:57:48;;;;;;;6.25;1.70;;;8.70;99.90;;;;;;4948989;28;20043;-73
2023/12/27 21:00:14;;;;;;;2.75;1.05;;;8.70;99.90;;;;;;4947326;28;20069;-74
2023/12/27 21:02:39;;;;;;;5.07;1.20;;;8.70;99.90;;;;;;4969320;28;20058;-73
2023/12/27 21:05:05;;;;;;;1.88;0.85;;;8.70;99.90;;;;;;4950224;28;20117;-73
2023/12/27 21:07:32;;;;;;;2.15;0.80;;;8.70;99.90;;;;;;4950364;28;20116;-74
2023/12/27 21:09:58;;;;;;;3.97;1.20;;;8.70;99.90;;;;;;4932304;28;20027;-73
2023/12/27 21:12:24;;;;;;;2.97;0.70;;;8.70;99.90;;;;;;4948327;28;20038;-74
2023/12/27 21:14:49;;;;;;;2.85;0.90;;;8.70;99.90;;;;;;4947246;28;20039;-74
2023/12/27 21:17:15;;;;;;;3.25;0.82;;;8.70;99.90;;;;;;4962144;28;20039;-73
2023/12/27 21:19:41;;;;;;;1.23;0.50;;;8.60;99.90;;;;;;4949553;28;20402;-73
2023/12/27 21:22:07;;;;;;;8.02;0.73;;;8.70;99.90;;;;;;4932115;28;20631;-75
2023/12/27 21:24:33;;;;;;;2.42;1.13;;;8.80;99.90;;;;;;4945931;28;20103;-73
2023/12/27 21:26:59;;;;;;;1.67;0.80;;;8.80;99.90;;;;;;4968222;28;20038;-72
2023/12/27 21:29:25;;;;;;;3.97;0.90;;;8.80;99.90;;;;;;4947757;29;20055;-73
2023/12/27 21:31:50;;;;;;;2.88;0.60;;;8.90;99.90;;;;;;4935206;28;20086;-75
2023/12/27 21:34:16;;;;;;;2.05;0.80;;;9.00;99.90;;;;;;4929997;29;20454;-75
2023/12/27 21:36:42;;;;;;;7.45;1.00;;;9.10;99.90;;;;;;4929668;28;20047;-74
2023/12/27 21:39:08;;;;;;;2.67;0.70;;;9.10;99.90;;;;;;4947103;28;20881;-74
2023/12/27 21:41:33;;;;;;;1.52;0.70;;;9.10;99.90;;;;;;4941342;28;20074;-74
2023/12/27 21:44:00;;;;;;;3.85;0.82;;;9.20;99.90;;;;;;4938402;28;20043;-74
2023/12/27 21:46:32;;;;;;;2.05;0.93;;;9.20;99.90;;;;;;4935926;28;20062;-74
2023/12/27 21:48:57;;;;;;;4.63;0.70;;;9.30;99.90;;;;;;4943740;28;20035;-74
2023/12/27 21:51:27;;;;;;;2.22;1.15;;;9.30;99.90;;;;;;4939915;28;20470;-74
2023/12/27 21:53:53;;;;;;;1.23;0.55;;;9.40;99.90;;;;;;4946348;28;20047;-75
2023/12/27 21:56:19;;;;;;;4.45;1.00;;;9.40;99.90;;;;;;4949377;28;20487;-75
2023/12/27 21:58:45;;;;;;;4.82;1.15;;;9.40;99.90;;;;;;4931037;29;20045;-73
2023/12/27 22:01:11;;;;;;;4.28;1.05;;;9.40;99.90;;;;;;4932240;28;20039;-73
2023/12/27 22:03:36;;;;;;;1.85;0.82;;;9.30;99.90;;;;;;4947511;28;20035;-74
2023/12/27 22:06:02;;;;;;;8.85;1.00;;;9.30;99.90;;;;;;4947084;28;20038;-73
2023/12/27 22:08:27;;;;;;;1.70;0.80;;;9.30;99.90;;;;;;4936978;28;20077;-74
2023/12/27 22:10:53;;;;;;;5.20;1.13;;;9.20;99.90;;;;;;4937413;28;20653;-73
2023/12/27 22:13:18;;;;;;;2.35;0.65;;;9.20;99.90;;;;;;4931417;29;20027;-74
2023/12/27 22:15:46;;;;;;;1.83;0.70;;;9.20;99.90;;;;;;4928099;28;20054;-73
2023/12/27 22:18:11;;;;;;;4.57;0.95;;;9.10;99.90;;;;;;4948417;28;20035;-72
2023/12/27 22:20:37;;;;;;;2.80;0.77;;;9.20;99.90;;;;;;4930961;28;20065;-74
2023/12/27 22:23:03;;;;;;;4.32;1.50;;;9.20;99.90;;;;;;4947621;28;20048;-74
2023/12/27 22:25:28;;;;;;;3.45;1.42;;;9.10;99.90;;;;;;4931478;29;20031;-74
2023/12/27 22:27:54;;;;;;;1.48;0.93;;;9.20;99.90;;;;;;4929740;29;20043;-73
2023/12/27 22:30:19;;;;;;;3.50;1.25;;;9.20;99.90;;;;;;4931321;28;20063;-73
2023/12/27 22:32:45;;;;;;;7.53;1.20;;;9.30;99.90;;;;;;4930036;28;20039;-75
2023/12/27 22:35:11;;;;;;;6.40;1.63;;;9.30;99.90;;;;;;4930633;28;20047;-73
2023/12/27 22:37:36;;;;;;;3.47;1.25;;;9.30;99.90;;;;;;4944091;28;20058;-75
2023/12/27 22:40:02;;;;;;;1.73;0.70;;;9.40;99.90;;;;;;4944214;28;20039;-74
2023/12/27 22:42:27;;;;;;;4.07;1.25;;;9.40;99.90;;;;;;4930001;29;20027;-73
2023/12/27 22:44:53;;;;;;;2.72;1.27;;;9.40;99.90;;;;;;4929668;28;20062;-73
2023/12/27 22:47:19;;;;;;;2.65;0.70;;;9.50;99.90;;;;;;4939194;28;20399;-73
2023/12/27 22:49:45;;;;;;;1.98;0.90;;;9.50;99.90;;;;;;4943061;28;20476;-75
2023/12/27 22:52:10;;;;;;;4.50;0.80;;;9.60;99.90;;;;;;4944892;28;20038;-73
2023/12/27 22:54:36;;;;;;;1.48;0.70;;;9.60;99.90;;;;;;4948426;28;20041;-73
2023/12/27 22:57:03;;;;;;;2.88;0.63;;;9.60;99.90;;;;;;4944135;28;20036;-73
2023/12/27 22:59:29;;;;;;;1.98;1.00;;;9.60;99.90;;;;;;4930814;29;20020;-72
2023/12/27 23:01:55;;;;;;;6.03;0.70;;;9.70;99.90;;;;;;4946573;28;20608;-73
2023/12/27 23:04:20;;;;;;;3.70;1.60;;;9.70;99.90;;;;;;4959720;28;20095;-73
2023/12/27 23:06:46;;;;;;;4.68;1.42;;;9.60;99.90;;;;;;4933429;29;20130;-73
2023/12/27 23:09:12;;;;;;;3.45;1.23;;;9.60;99.90;;;;;;4930210;28;20041;-73
2023/12/27 23:11:43;;;;;;;2.05;0.85;;;9.60;99.90;;;;;;4929549;28;20035;-74
2023/12/27 23:14:09;;;;;;;4.78;1.40;;;9.60;99.90;;;;;;4962976;28;20181;-73
2023/12/27 23:16:34;;;;;;;1.90;0.98;;;9.60;99.90;;;;;;4935407;28;20477;-73
2023/12/27 23:19:00;;;;;;;2.92;0.90;;;9.60;99.90;;;;;;4930045;28;20046;-73
2023/12/27 23:21:25;;;;;;;3.15;1.08;;;9.70;99.90;;;;;;4947379;28;20043;-73
2023/12/27 23:23:51;;;;;;;2.22;0.77;;;9.70;99.90;;;;;;4929282;28;20500;-75